sensor_id;sensor_type;location;lat;lon;timestamp;temperature;humidity
28546;DHT22;15749;49.606;8.738;2023-07-24T00:02:00;24.30;99.90
28546;DHT22;15749;49.606;8.738;2023-07-24T00:04:30;24.30;99.90
28546;DHT22;15749;49.606;8.738;2023-07-24T00:07:00;24.30;99.90
28546;DHT22;15749;49.606;8.738;2023-07-24T00:09:31;24.30;99.90
28546;DHT22;15749;49.606;8.738;2023-07-24T00:12:01;24.30;99.90
28546;DHT22;15749;49.606;8.738;2023-07-24T00:14:31;24.30;99.90
28546;DHT22;15749;49.606;8.738;2023-07-24T00:17:01;24.20;99.90
28546;DHT22;15749;49.606;8.738;2023-07-24T00:19:30;24.20;99.90
28546;DHT22;15749;49.606;8.738;2023-07-24T00:22:00;24.20;99.90
28546;DHT22;15749;49.606;8.738;2023-07-24T00:24:31;24.20;99.90
28546;DHT22;15749;49.606;8.738;2023-07-24T00:27:01;24.20;99.90
28546;DHT22;15749;49.606;8.738;2023-07-24T00:29:31;24.20;99.90
28546;DHT22;15749;49.606;8.738;2023-07-24T00:32:00;24.20;99.90
28546;DHT22;15749;49.606;8.738;2023-07-24T00:34:30;24.20;99.90
28546;DHT22;15749;49.606;8.738;2023-07-24T00:37:00;24.10;99.90
28546;DHT22;15749;49.606;8.738;2023-07-24T00:39:33;24.10;99.90
28546;DHT22;15749;49.606;8.738;2023-07-24T00:42:21;24.10;99.90
28546;DHT22;15749;49.606;8.738;2023-07-24T00:44:51;24.10;99.90
28546;DHT22;15749;49.606;8.738;2023-07-24T00:47:23;24.10;99.90
28546;DHT22;15749;49.606;8.738;2023-07-24T00:49:55;24.10;99.90
28546;DHT22;15749;49.606;8.738;2023-07-24T00:52:26;24.10;99.90
28546;DHT22;15749;49.606;8.738;2023-07-24T00:54:57;24.00;99.90
28546;DHT22;15749;49.606;8.738;2023-07-24T00:57:26;24.00;99.90
28546;DHT22;15749;49.606;8.738;2023-07-24T00:59:56;24.00;99.90
28546;DHT22;15749;49.606;8.738;2023-07-24T01:02:26;24.00;99.90
28546;DHT22;15749;49.606;8.738;2023-07-24T01:04:57;24.00;99.90
28546;DHT22;15749;49.606;8.738;2023-07-24T01:07:27;24.00;99.90
28546;DHT22;15749;49.606;8.738;2023-07-24T01:09:57;24.00;99.90
28546;DHT22;15749;49.606;8.738;2023-07-24T01:12:33;24.00;99.90
28546;DHT22;15749;49.606;8.738;2023-07-24T01:15:09;24.00;99.90
28546;DHT22;15749;49.606;8.738;2023-07-24T01:17:45;24.00;99.90
28546;DHT22;15749;49.606;8.738;2023-07-24T01:20:17;23.90;99.90
28546;DHT22;15749;49.606;8.738;2023-07-24T01:23:04;23.90;99.90
28546;DHT22;15749;49.606;8.738;2023-07-24T01:25:53;23.90;99.90
28546;DHT22;15749;49.606;8.738;2023-07-24T01:28:24;23.90;99.90
28546;DHT22;15749;49.606;8.738;2023-07-24T01:30:54;23.90;99.90
28546;DHT22;15749;49.606;8.738;2023-07-24T01:33:25;23.90;99.90
28546;DHT22;15749;49.606;8.738;2023-07-24T01:35:57;23.80;99.90
28546;DHT22;15749;49.606;8.738;2023-07-24T01:38:28;23.80;99.90
28546;DHT22;15749;49.606;8.738;2023-07-24T01:41:02;23.80;99.90
28546;DHT22;15749;49.606;8.738;2023-07-24T01:43:32;23.80;99.90
28546;DHT22;15749;49.606;8.738;2023-07-24T01:46:02;23.80;99.90
28546;DHT22;15749;49.606;8.738;2023-07-24T01:48:31;23.80;99.90
28546;DHT22;15749;49.606;8.738;2023-07-24T01:51:01;23.70;99.90
28546;DHT22;15749;49.606;8.738;2023-07-24T01:53:30;23.70;99.90
28546;DHT22;15749;49.606;8.738;2023-07-24T01:56:01;23.70;99.90
28546;DHT22;15749;49.606;8.738;2023-07-24T01:58:31;23.70;99.90
28546;DHT22;15749;49.606;8.738;2023-07-24T02:01:01;23.70;99.90
28546;DHT22;15749;49.606;8.738;2023-07-24T02:03:30;23.70;99.90
28546;DHT22;15749;49.606;8.738;2023-07-24T02:06:00;23.60;99.90
28546;DHT22;15749;49.606;8.738;2023-07-24T02:08:30;23.60;99.90
28546;DHT22;15749;49.606;8.738;2023-07-24T02:11:02;23.60;99.90
28546;DHT22;15749;49.606;8.738;2023-07-24T02:13:32;23.60;99.90
28546;DHT22;15749;49.606;8.738;2023-07-24T02:16:01;23.60;99.90
28546;DHT22;15749;49.606;8.738;2023-07-24T02:18:30;23.60;99.90
28546;DHT22;15749;49.606;8.738;2023-07-24T02:24:04;23.60;99.90
28546;DHT22;15749;49.606;8.738;2023-07-24T02:26:35;23.50;99.90
28546;DHT22;15749;49.606;8.738;2023-07-24T02:29:05;23.50;99.90
28546;DHT22;15749;49.606;8.738;2023-07-24T02:31:34;23.50;99.90
28546;DHT22;15749;49.606;8.738;2023-07-24T02:34:04;23.50;99.90
28546;DHT22;15749;49.606;8.738;2023-07-24T02:36:33;23.50;99.90
28546;DHT22;15749;49.606;8.738;2023-07-24T02:39:03;23.50;99.90
28546;DHT22;15749;49.606;8.738;2023-07-24T02:41:33;23.50;99.90
28546;DHT22;15749;49.606;8.738;2023-07-24T02:44:04;23.50;99.90
28546;DHT22;15749;49.606;8.738;2023-07-24T02:46:34;23.50;99.90
28546;DHT22;15749;49.606;8.738;2023-07-24T02:49:03;23.40;99.90
28546;DHT22;15749;49.606;8.738;2023-07-24T02:51:33;23.40;99.90
28546;DHT22;15749;49.606;8.738;2023-07-24T02:54:03;23.40;99.90
28546;DHT22;15749;49.606;8.738;2023-07-24T02:56:35;23.40;99.90
28546;DHT22;15749;49.606;8.738;2023-07-24T02:59:05;23.40;99.90
28546;DHT22;15749;49.606;8.738;2023-07-24T03:01:34;23.40;99.90
28546;DHT22;15749;49.606;8.738;2023-07-24T03:04:04;23.40;99.90
28546;DHT22;15749;49.606;8.738;2023-07-24T03:06:34;23.40;99.90
28546;DHT22;15749;49.606;8.738;2023-07-24T03:09:04;23.40;99.90
28546;DHT22;15749;49.606;8.738;2023-07-24T03:11:35;23.30;99.90
28546;DHT22;15749;49.606;8.738;2023-07-24T03:14:04;23.30;99.90
28546;DHT22;15749;49.606;8.738;2023-07-24T03:16:34;23.30;99.90
28546;DHT22;15749;49.606;8.738;2023-07-24T03:19:03;23.30;99.90
28546;DHT22;15749;49.606;8.738;2023-07-24T03:21:33;23.30;99.90
28546;DHT22;15749;49.606;8.738;2023-07-24T03:24:03;23.30;99.90
28546;DHT22;15749;49.606;8.738;2023-07-24T03:26:35;23.30;99.90
28546;DHT22;15749;49.606;8.738;2023-07-24T03:29:05;23.20;99.90
28546;DHT22;15749;49.606;8.738;2023-07-24T03:31:34;23.20;99.90
28546;DHT22;15749;49.606;8.738;2023-07-24T03:34:04;23.20;99.90
28546;DHT22;15749;49.606;8.738;2023-07-24T03:36:34;23.20;99.90
28546;DHT22;15749;49.606;8.738;2023-07-24T03:39:04;23.20;99.90
28546;DHT22;15749;49.606;8.738;2023-07-24T03:41:35;23.20;99.90
28546;DHT22;15749;49.606;8.738;2023-07-24T03:44:08;23.20;99.90
28546;DHT22;15749;49.606;8.738;2023-07-24T03:46:40;23.20;99.90
28546;DHT22;15749;49.606;8.738;2023-07-24T03:49:10;23.20;99.90
28546;DHT22;15749;49.606;8.738;2023-07-24T03:51:39;23.20;99.90
28546;DHT22;15749;49.606;8.738;2023-07-24T03:54:09;23.20;99.90
28546;DHT22;15749;49.606;8.738;2023-07-24T03:56:42;23.20;99.90
28546;DHT22;15749;49.606;8.738;2023-07-24T03:59:11;23.20;99.90
28546;DHT22;15749;49.606;8.738;2023-07-24T04:01:44;23.20;99.90
28546;DHT22;15749;49.606;8.738;2023-07-24T04:04:13;23.20;99.90
28546;DHT22;15749;49.606;8.738;2023-07-24T04:06:46;23.10;99.90
28546;DHT22;15749;49.606;8.738;2023-07-24T04:09:15;23.10;99.90
28546;DHT22;15749;49.606;8.738;2023-07-24T04:11:48;23.10;99.90
28546;DHT22;15749;49.606;8.738;2023-07-24T04:14:17;23.10;99.90
28546;DHT22;15749;49.606;8.738;2023-07-24T04:16:48;23.10;99.90
28546;DHT22;15749;49.606;8.738;2023-07-24T04:19:18;23.10;99.90
28546;DHT22;15749;49.606;8.738;2023-07-24T04:21:49;23.10;99.90
28546;DHT22;15749;49.606;8.738;2023-07-24T04:24:18;23.10;99.90
28546;DHT22;15749;49.606;8.738;2023-07-24T04:26:51;23.10;99.90
28546;DHT22;15749;49.606;8.738;2023-07-24T04:29:21;23.10;99.90
28546;DHT22;15749;49.606;8.738;2023-07-24T04:31:53;23.20;99.90
28546;DHT22;15749;49.606;8.738;2023-07-24T04:34:23;23.10;99.90
28546;DHT22;15749;49.606;8.738;2023-07-24T04:36:53;23.20;99.90
28546;DHT22;15749;49.606;8.738;2023-07-24T04:39:22;23.10;99.90
28546;DHT22;15749;49.606;8.738;2023-07-24T04:41:53;23.10;99.90
28546;DHT22;15749;49.606;8.738;2023-07-24T04:44:23;23.10;99.90
28546;DHT22;15749;49.606;8.738;2023-07-24T04:46:52;23.10;99.90
28546;DHT22;15749;49.606;8.738;2023-07-24T04:49:24;23.10;99.90
28546;DHT22;15749;49.606;8.738;2023-07-24T04:51:53;23.10;99.90
28546;DHT22;15749;49.606;8.738;2023-07-24T04:54:23;23.10;99.90
28546;DHT22;15749;49.606;8.738;2023-07-24T04:56:56;23.10;99.90
28546;DHT22;15749;49.606;8.738;2023-07-24T04:59:26;23.10;99.90
28546;DHT22;15749;49.606;8.738;2023-07-24T05:01:56;23.10;99.90
28546;DHT22;15749;49.606;8.738;2023-07-24T05:04:25;23.10;99.90
28546;DHT22;15749;49.606;8.738;2023-07-24T05:06:55;23.10;99.90
28546;DHT22;15749;49.606;8.738;2023-07-24T05:09:24;23.10;99.90
28546;DHT22;15749;49.606;8.738;2023-07-24T05:11:55;23.10;99.90
28546;DHT22;15749;49.606;8.738;2023-07-24T05:14:25;23.10;99.90
28546;DHT22;15749;49.606;8.738;2023-07-24T05:16:55;23.10;99.90
28546;DHT22;15749;49.606;8.738;2023-07-24T05:19:24;23.10;99.90
28546;DHT22;15749;49.606;8.738;2023-07-24T05:21:54;23.10;99.90
28546;DHT22;15749;49.606;8.738;2023-07-24T05:24:23;23.10;99.90
28546;DHT22;15749;49.606;8.738;2023-07-24T05:26:53;23.10;99.90
28546;DHT22;15749;49.606;8.738;2023-07-24T05:29:27;23.10;99.90
28546;DHT22;15749;49.606;8.738;2023-07-24T05:31:57;23.10;99.90
28546;DHT22;15749;49.606;8.738;2023-07-24T05:34:27;23.10;99.90
28546;DHT22;15749;49.606;8.738;2023-07-24T05:36:56;23.10;99.90
28546;DHT22;15749;49.606;8.738;2023-07-24T05:39:26;23.10;99.90
28546;DHT22;15749;49.606;8.738;2023-07-24T05:41:55;23.10;99.90
28546;DHT22;15749;49.606;8.738;2023-07-24T05:44:26;23.10;99.90
28546;DHT22;15749;49.606;8.738;2023-07-24T05:46:56;23.10;99.90
28546;DHT22;15749;49.606;8.738;2023-07-24T05:49:26;23.10;99.90
28546;DHT22;15749;49.606;8.738;2023-07-24T05:51:55;23.10;99.90
28546;DHT22;15749;49.606;8.738;2023-07-24T05:54:25;23.10;99.90
28546;DHT22;15749;49.606;8.738;2023-07-24T05:56:54;23.10;99.90
28546;DHT22;15749;49.606;8.738;2023-07-24T05:59:24;23.10;99.90
28546;DHT22;15749;49.606;8.738;2023-07-24T06:01:55;23.10;99.90
28546;DHT22;15749;49.606;8.738;2023-07-24T06:04:25;23.10;99.90
28546;DHT22;15749;49.606;8.738;2023-07-24T06:06:54;23.10;99.90
28546;DHT22;15749;49.606;8.738;2023-07-24T06:09:24;23.10;99.90
28546;DHT22;15749;49.606;8.738;2023-07-24T06:11:56;23.10;99.90
28546;DHT22;15749;49.606;8.738;2023-07-24T06:14:28;23.20;99.90
28546;DHT22;15749;49.606;8.738;2023-07-24T06:16:59;23.20;99.90
28546;DHT22;15749;49.606;8.738;2023-07-24T06:19:29;23.20;99.90
28546;DHT22;15749;49.606;8.738;2023-07-24T06:21:58;23.20;99.90
28546;DHT22;15749;49.606;8.738;2023-07-24T06:24:28;23.20;99.90
28546;DHT22;15749;49.606;8.738;2023-07-24T06:27:01;23.20;99.90
28546;DHT22;15749;49.606;8.738;2023-07-24T06:29:30;23.20;99.90
28546;DHT22;15749;49.606;8.738;2023-07-24T06:32:01;23.20;99.90
28546;DHT22;15749;49.606;8.738;2023-07-24T06:34:31;23.20;99.90
28546;DHT22;15749;49.606;8.738;2023-07-24T06:37:01;23.20;99.90
28546;DHT22;15749;49.606;8.738;2023-07-24T06:39:49;23.20;99.90
28546;DHT22;15749;49.606;8.738;2023-07-24T06:42:18;23.30;99.90
28546;DHT22;15749;49.606;8.738;2023-07-24T06:44:48;23.30;99.90
28546;DHT22;15749;49.606;8.738;2023-07-24T06:47:19;23.30;99.90
28546;DHT22;15749;49.606;8.738;2023-07-24T06:49:48;23.30;99.90
28546;DHT22;15749;49.606;8.738;2023-07-24T06:52:18;23.30;99.90
28546;DHT22;15749;49.606;8.738;2023-07-24T06:54:47;23.30;99.90
28546;DHT22;15749;49.606;8.738;2023-07-24T06:57:17;23.30;99.90
28546;DHT22;15749;49.606;8.738;2023-07-24T06:59:46;23.30;99.90
28546;DHT22;15749;49.606;8.738;2023-07-24T07:02:16;23.30;99.90
28546;DHT22;15749;49.606;8.738;2023-07-24T07:04:47;23.30;99.90
28546;DHT22;15749;49.606;8.738;2023-07-24T07:07:16;23.30;99.90
28546;DHT22;15749;49.606;8.738;2023-07-24T07:09:46;23.30;99.90
28546;DHT22;15749;49.606;8.738;2023-07-24T07:12:17;23.30;99.90
28546;DHT22;15749;49.606;8.738;2023-07-24T07:14:49;23.30;99.90
28546;DHT22;15749;49.606;8.738;2023-07-24T07:17:18;23.40;99.90
28546;DHT22;15749;49.606;8.738;2023-07-24T07:19:49;23.40;99.90
28546;DHT22;15749;49.606;8.738;2023-07-24T07:22:19;23.40;99.90
28546;DHT22;15749;49.606;8.738;2023-07-24T07:24:49;23.40;99.90
28546;DHT22;15749;49.606;8.738;2023-07-24T07:27:18;23.40;99.90
28546;DHT22;15749;49.606;8.738;2023-07-24T07:29:48;23.40;99.90
28546;DHT22;15749;49.606;8.738;2023-07-24T07:32:18;23.50;99.90
28546;DHT22;15749;49.606;8.738;2023-07-24T07:34:49;23.50;99.90
28546;DHT22;15749;49.606;8.738;2023-07-24T07:37:18;23.50;99.90
28546;DHT22;15749;49.606;8.738;2023-07-24T07:39:48;23.50;99.90
28546;DHT22;15749;49.606;8.738;2023-07-24T07:42:18;23.50;99.90
28546;DHT22;15749;49.606;8.738;2023-07-24T07:44:47;23.60;99.90
28546;DHT22;15749;49.606;8.738;2023-07-24T07:47:17;23.60;99.90
28546;DHT22;15749;49.606;8.738;2023-07-24T07:49:46;23.60;99.90
28546;DHT22;15749;49.606;8.738;2023-07-24T07:52:18;23.60;99.90
28546;DHT22;15749;49.606;8.738;2023-07-24T07:54:49;23.70;99.90
28546;DHT22;15749;49.606;8.738;2023-07-24T07:57:19;23.70;99.90
28546;DHT22;15749;49.606;8.738;2023-07-24T07:59:48;23.70;99.90
28546;DHT22;15749;49.606;8.738;2023-07-24T08:02:18;23.70;99.90
28546;DHT22;15749;49.606;8.738;2023-07-24T08:04:54;23.80;99.90
28546;DHT22;15749;49.606;8.738;2023-07-24T08:07:24;23.80;99.90
28546;DHT22;15749;49.606;8.738;2023-07-24T08:09:54;23.80;99.90
28546;DHT22;15749;49.606;8.738;2023-07-24T08:12:24;23.80;99.90
28546;DHT22;15749;49.606;8.738;2023-07-24T08:14:55;23.90;99.90
28546;DHT22;15749;49.606;8.738;2023-07-24T08:17:36;23.90;99.90
28546;DHT22;15749;49.606;8.738;2023-07-24T08:20:08;24.00;99.90
28546;DHT22;15749;49.606;8.738;2023-07-24T08:22:38;24.00;99.90
28546;DHT22;15749;49.606;8.738;2023-07-24T08:25:08;24.00;99.90
28546;DHT22;15749;49.606;8.738;2023-07-24T08:27:38;24.00;99.90
28546;DHT22;15749;49.606;8.738;2023-07-24T08:30:27;24.00;99.90
28546;DHT22;15749;49.606;8.738;2023-07-24T08:32:57;24.10;99.90
28546;DHT22;15749;49.606;8.738;2023-07-24T08:35:29;24.10;99.90
28546;DHT22;15749;49.606;8.738;2023-07-24T08:37:58;24.10;99.90
28546;DHT22;15749;49.606;8.738;2023-07-24T08:40:28;24.10;99.90
28546;DHT22;15749;49.606;8.738;2023-07-24T08:42:59;24.20;99.90
28546;DHT22;15749;49.606;8.738;2023-07-24T08:45:29;24.10;99.90
28546;DHT22;15749;49.606;8.738;2023-07-24T08:48:00;24.20;99.90
28546;DHT22;15749;49.606;8.738;2023-07-24T08:50:31;24.20;99.90
28546;DHT22;15749;49.606;8.738;2023-07-24T08:53:04;24.20;99.90
28546;DHT22;15749;49.606;8.738;2023-07-24T08:55:34;24.30;99.90
28546;DHT22;15749;49.606;8.738;2023-07-24T08:58:04;24.30;99.90
28546;DHT22;15749;49.606;8.738;2023-07-24T09:00:35;24.30;99.90
28546;DHT22;15749;49.606;8.738;2023-07-24T09:03:04;24.30;99.90
28546;DHT22;15749;49.606;8.738;2023-07-24T09:05:39;24.40;99.90
28546;DHT22;15749;49.606;8.738;2023-07-24T09:08:11;24.40;99.90
28546;DHT22;15749;49.606;8.738;2023-07-24T09:10:47;24.40;99.90
28546;DHT22;15749;49.606;8.738;2023-07-24T09:13:23;24.40;99.90
28546;DHT22;15749;49.606;8.738;2023-07-24T09:15:53;24.50;99.90
28546;DHT22;15749;49.606;8.738;2023-07-24T09:18:23;24.50;99.90
28546;DHT22;15749;49.606;8.738;2023-07-24T09:20:54;24.50;99.90
28546;DHT22;15749;49.606;8.738;2023-07-24T09:23:27;24.60;99.90
28546;DHT22;15749;49.606;8.738;2023-07-24T09:25:58;24.60;99.90
28546;DHT22;15749;49.606;8.738;2023-07-24T09:28:32;24.70;99.90
28546;DHT22;15749;49.606;8.738;2023-07-24T09:31:04;24.70;99.90
28546;DHT22;15749;49.606;8.738;2023-07-24T09:33:36;24.70;99.90
28546;DHT22;15749;49.606;8.738;2023-07-24T09:36:14;24.70;99.90
28546;DHT22;15749;49.606;8.738;2023-07-24T09:39:00;24.80;99.90
28546;DHT22;15749;49.606;8.738;2023-07-24T09:41:34;24.80;99.90
28546;DHT22;15749;49.606;8.738;2023-07-24T09:44:11;24.80;99.90
28546;DHT22;15749;49.606;8.738;2023-07-24T09:46:43;24.80;99.90
28546;DHT22;15749;49.606;8.738;2023-07-24T09:49:25;24.90;99.90
28546;DHT22;15749;49.606;8.738;2023-07-24T09:51:59;24.90;99.90
28546;DHT22;15749;49.606;8.738;2023-07-24T09:54:32;24.90;99.90
28546;DHT22;15749;49.606;8.738;2023-07-24T09:57:07;24.90;99.90
28546;DHT22;15749;49.606;8.738;2023-07-24T09:59:49;24.90;99.90
28546;DHT22;15749;49.606;8.738;2023-07-24T10:02:23;24.90;99.90
28546;DHT22;15749;49.606;8.738;2023-07-24T10:04:55;24.90;99.90
28546;DHT22;15749;49.606;8.738;2023-07-24T10:07:26;25.00;99.90
28546;DHT22;15749;49.606;8.738;2023-07-24T10:09:56;25.00;99.90
28546;DHT22;15749;49.606;8.738;2023-07-24T10:12:26;25.00;99.90
28546;DHT22;15749;49.606;8.738;2023-07-24T10:14:58;25.00;99.90
28546;DHT22;15749;49.606;8.738;2023-07-24T10:17:35;25.00;99.90
28546;DHT22;15749;49.606;8.738;2023-07-24T10:20:07;25.00;99.90
28546;DHT22;15749;49.606;8.738;2023-07-24T10:22:42;25.00;99.90
28546;DHT22;15749;49.606;8.738;2023-07-24T10:25:12;25.00;99.90
28546;DHT22;15749;49.606;8.738;2023-07-24T10:27:43;25.00;99.90
28546;DHT22;15749;49.606;8.738;2023-07-24T10:30:28;25.00;99.90
28546;DHT22;15749;49.606;8.738;2023-07-24T10:33:06;25.00;99.90
28546;DHT22;15749;49.606;8.738;2023-07-24T10:35:42;25.00;99.90
28546;DHT22;15749;49.606;8.738;2023-07-24T10:38:16;25.10;99.90
28546;DHT22;15749;49.606;8.738;2023-07-24T10:40:47;25.10;99.90
28546;DHT22;15749;49.606;8.738;2023-07-24T10:43:19;25.00;99.90
28546;DHT22;15749;49.606;8.738;2023-07-24T10:45:51;25.10;99.90
28546;DHT22;15749;49.606;8.738;2023-07-24T10:48:24;25.10;99.90
28546;DHT22;15749;49.606;8.738;2023-07-24T10:50:55;25.10;99.90
28546;DHT22;15749;49.606;8.738;2023-07-24T10:53:34;25.10;99.90
28546;DHT22;15749;49.606;8.738;2023-07-24T10:56:15;25.10;99.90
28546;DHT22;15749;49.606;8.738;2023-07-24T10:58:49;25.10;99.90
28546;DHT22;15749;49.606;8.738;2023-07-24T11:01:39;25.10;99.90
28546;DHT22;15749;49.606;8.738;2023-07-24T11:04:11;25.10;99.90
28546;DHT22;15749;49.606;8.738;2023-07-24T11:06:41;25.20;99.90
28546;DHT22;15749;49.606;8.738;2023-07-24T11:09:12;25.20;99.90
28546;DHT22;15749;49.606;8.738;2023-07-24T11:11:42;25.20;99.90
28546;DHT22;15749;49.606;8.738;2023-07-24T11:14:13;25.10;99.90
28546;DHT22;15749;49.606;8.738;2023-07-24T11:16:49;25.20;99.90
28546;DHT22;15749;49.606;8.738;2023-07-24T11:19:23;25.10;99.90
28546;DHT22;15749;49.606;8.738;2023-07-24T11:21:53;25.20;99.90
28546;DHT22;15749;49.606;8.738;2023-07-24T11:24:26;25.20;99.90
28546;DHT22;15749;49.606;8.738;2023-07-24T11:26:57;25.20;99.90
28546;DHT22;15749;49.606;8.738;2023-07-24T11:29:27;25.20;99.90
28546;DHT22;15749;49.606;8.738;2023-07-24T11:32:23;25.20;99.90
28546;DHT22;15749;49.606;8.738;2023-07-24T11:35:01;25.20;99.90
28546;DHT22;15749;49.606;8.738;2023-07-24T11:37:33;25.20;99.90
28546;DHT22;15749;49.606;8.738;2023-07-24T11:40:10;25.30;99.90
28546;DHT22;15749;49.606;8.738;2023-07-24T11:42:53;25.30;99.90
28546;DHT22;15749;49.606;8.738;2023-07-24T11:45:23;25.30;99.90
28546;DHT22;15749;49.606;8.738;2023-07-24T11:47:53;25.30;99.90
28546;DHT22;15749;49.606;8.738;2023-07-24T11:50:24;25.30;99.90
28546;DHT22;15749;49.606;8.738;2023-07-24T11:52:58;25.30;99.90
28546;DHT22;15749;49.606;8.738;2023-07-24T11:55:32;25.30;99.90
28546;DHT22;15749;49.606;8.738;2023-07-24T11:58:03;25.40;99.90
28546;DHT22;15749;49.606;8.738;2023-07-24T12:00:35;25.40;99.90
28546;DHT22;15749;49.606;8.738;2023-07-24T12:03:05;25.40;99.90
28546;DHT22;15749;49.606;8.738;2023-07-24T12:05:39;25.40;99.90
28546;DHT22;15749;49.606;8.738;2023-07-24T12:08:10;25.50;99.90
28546;DHT22;15749;49.606;8.738;2023-07-24T12:10:43;25.50;99.90
28546;DHT22;15749;49.606;8.738;2023-07-24T12:13:12;25.50;99.90
28546;DHT22;15749;49.606;8.738;2023-07-24T12:15:51;25.50;99.90
28546;DHT22;15749;49.606;8.738;2023-07-24T12:18:23;25.50;99.90
28546;DHT22;15749;49.606;8.738;2023-07-24T12:20:53;25.50;99.90
28546;DHT22;15749;49.606;8.738;2023-07-24T12:23:23;25.60;99.90
28546;DHT22;15749;49.606;8.738;2023-07-24T12:25:56;25.60;99.90
28546;DHT22;15749;49.606;8.738;2023-07-24T12:28:30;25.60;99.90
28546;DHT22;15749;49.606;8.738;2023-07-24T12:31:00;25.60;99.90
28546;DHT22;15749;49.606;8.738;2023-07-24T12:33:31;25.60;99.90
28546;DHT22;15749;49.606;8.738;2023-07-24T12:36:01;25.60;99.90
28546;DHT22;15749;49.606;8.738;2023-07-24T12:38:30;25.60;99.90
28546;DHT22;15749;49.606;8.738;2023-07-24T12:41:02;25.70;99.90
28546;DHT22;15749;49.606;8.738;2023-07-24T12:43:31;25.70;99.90
28546;DHT22;15749;49.606;8.738;2023-07-24T12:46:01;25.70;99.90
28546;DHT22;15749;49.606;8.738;2023-07-24T12:48:31;25.70;99.90
28546;DHT22;15749;49.606;8.738;2023-07-24T12:51:00;25.70;99.90
28546;DHT22;15749;49.606;8.738;2023-07-24T12:53:37;25.70;99.90
28546;DHT22;15749;49.606;8.738;2023-07-24T12:56:19;25.80;99.90
28546;DHT22;15749;49.606;8.738;2023-07-24T12:58:52;25.80;99.90
28546;DHT22;15749;49.606;8.738;2023-07-24T13:01:23;25.80;99.90
28546;DHT22;15749;49.606;8.738;2023-07-24T13:03:56;25.80;99.90
28546;DHT22;15749;49.606;8.738;2023-07-24T13:06:25;25.80;99.90
28546;DHT22;15749;49.606;8.738;2023-07-24T13:08:56;25.90;99.90
28546;DHT22;15749;49.606;8.738;2023-07-24T13:11:27;25.90;99.90
28546;DHT22;15749;49.606;8.738;2023-07-24T13:13:58;25.90;99.90
28546;DHT22;15749;49.606;8.738;2023-07-24T13:16:35;25.90;99.90
28546;DHT22;15749;49.606;8.738;2023-07-24T13:19:05;25.90;99.90
28546;DHT22;15749;49.606;8.738;2023-07-24T13:21:48;25.90;99.90
28546;DHT22;15749;49.606;8.738;2023-07-24T13:24:20;25.90;99.90
28546;DHT22;15749;49.606;8.738;2023-07-24T13:26:57;26.00;99.90
28546;DHT22;15749;49.606;8.738;2023-07-24T13:29:27;26.00;99.90
28546;DHT22;15749;49.606;8.738;2023-07-24T13:31:59;26.00;99.90
28546;DHT22;15749;49.606;8.738;2023-07-24T13:34:41;26.00;99.90
28546;DHT22;15749;49.606;8.738;2023-07-24T13:37:15;26.00;99.90
28546;DHT22;15749;49.606;8.738;2023-07-24T13:39:45;26.00;99.90
28546;DHT22;15749;49.606;8.738;2023-07-24T13:42:16;26.00;99.90
28546;DHT22;15749;49.606;8.738;2023-07-24T13:44:45;26.00;99.90
28546;DHT22;15749;49.606;8.738;2023-07-24T13:47:15;26.00;99.90
28546;DHT22;15749;49.606;8.738;2023-07-24T13:49:44;26.10;99.90
28546;DHT22;15749;49.606;8.738;2023-07-24T13:52:14;26.10;99.90
28546;DHT22;15749;49.606;8.738;2023-07-24T13:55:09;26.00;99.90
28546;DHT22;15749;49.606;8.738;2023-07-24T13:57:45;26.10;99.90
28546;DHT22;15749;49.606;8.738;2023-07-24T14:00:16;26.10;99.90
28546;DHT22;15749;49.606;8.738;2023-07-24T14:02:48;26.10;99.90
28546;DHT22;15749;49.606;8.738;2023-07-24T14:05:34;26.10;99.90
28546;DHT22;15749;49.606;8.738;2023-07-24T14:08:08;26.10;99.90
28546;DHT22;15749;49.606;8.738;2023-07-24T14:10:41;26.10;99.90
28546;DHT22;15749;49.606;8.738;2023-07-24T14:13:11;26.10;99.90
28546;DHT22;15749;49.606;8.738;2023-07-24T14:15:41;26.10;99.90
28546;DHT22;15749;49.606;8.738;2023-07-24T14:18:10;26.20;99.90
28546;DHT22;15749;49.606;8.738;2023-07-24T14:20:40;26.10;99.90
28546;DHT22;15749;49.606;8.738;2023-07-24T14:23:09;26.20;99.90
28546;DHT22;15749;49.606;8.738;2023-07-24T14:25:38;26.20;99.90
28546;DHT22;15749;49.606;8.738;2023-07-24T14:28:08;26.20;99.90
28546;DHT22;15749;49.606;8.738;2023-07-24T14:30:38;26.20;99.90
28546;DHT22;15749;49.606;8.738;2023-07-24T14:33:08;26.20;99.90
28546;DHT22;15749;49.606;8.738;2023-07-24T14:35:37;26.10;99.90
28546;DHT22;15749;49.606;8.738;2023-07-24T14:38:06;26.20;99.90
28546;DHT22;15749;49.606;8.738;2023-07-24T14:40:36;26.20;99.90
28546;DHT22;15749;49.606;8.738;2023-07-24T14:43:05;26.20;99.90
28546;DHT22;15749;49.606;8.738;2023-07-24T14:45:34;26.20;99.90
28546;DHT22;15749;49.606;8.738;2023-07-24T14:48:06;26.20;99.90
28546;DHT22;15749;49.606;8.738;2023-07-24T14:50:37;26.20;99.90
28546;DHT22;15749;49.606;8.738;2023-07-24T14:53:07;26.20;99.90
28546;DHT22;15749;49.606;8.738;2023-07-24T14:55:36;26.10;99.90
28546;DHT22;15749;49.606;8.738;2023-07-24T14:58:05;26.10;99.90
28546;DHT22;15749;49.606;8.738;2023-07-24T15:00:35;26.10;99.90
28546;DHT22;15749;49.606;8.738;2023-07-24T15:03:06;26.10;99.90
28546;DHT22;15749;49.606;8.738;2023-07-24T15:05:35;26.10;99.90
28546;DHT22;15749;49.606;8.738;2023-07-24T15:08:05;26.10;99.90
28546;DHT22;15749;49.606;8.738;2023-07-24T15:10:34;26.10;99.90
28546;DHT22;15749;49.606;8.738;2023-07-24T15:13:03;26.00;99.90
28546;DHT22;15749;49.606;8.738;2023-07-24T15:15:33;26.00;99.90
28546;DHT22;15749;49.606;8.738;2023-07-24T15:18:06;26.00;99.90
28546;DHT22;15749;49.606;8.738;2023-07-24T15:20:36;26.00;99.90
28546;DHT22;15749;49.606;8.738;2023-07-24T15:23:05;26.00;99.90
28546;DHT22;15749;49.606;8.738;2023-07-24T15:25:36;26.00;99.90
28546;DHT22;15749;49.606;8.738;2023-07-24T15:28:06;26.00;99.90
28546;DHT22;15749;49.606;8.738;2023-07-24T15:30:35;26.00;99.90
28546;DHT22;15749;49.606;8.738;2023-07-24T15:33:06;25.90;99.90
28546;DHT22;15749;49.606;8.738;2023-07-24T15:35:35;25.90;99.90
28546;DHT22;15749;49.606;8.738;2023-07-24T15:38:05;25.90;99.90
28546;DHT22;15749;49.606;8.738;2023-07-24T15:40:34;25.90;99.90
28546;DHT22;15749;49.606;8.738;2023-07-24T15:43:05;25.80;99.90
28546;DHT22;15749;49.606;8.738;2023-07-24T15:45:34;25.80;99.90
28546;DHT22;15749;49.606;8.738;2023-07-24T15:48:06;25.80;99.90
28546;DHT22;15749;49.606;8.738;2023-07-24T15:50:36;25.80;99.90
28546;DHT22;15749;49.606;8.738;2023-07-24T15:53:06;25.80;99.90
28546;DHT22;15749;49.606;8.738;2023-07-24T15:55:35;25.80;99.90
28546;DHT22;15749;49.606;8.738;2023-07-24T15:58:06;25.80;99.90
28546;DHT22;15749;49.606;8.738;2023-07-24T16:00:36;25.70;99.90